createdAt,value
2023-04-21T00:05:03.088Z,66255.94
2023-04-21T00:10:08.739Z,66315.38
2023-04-21T00:15:12.966Z,66202.94
2023-04-21T00:20:18.487Z,66268.28
2023-04-21T00:25:22.927Z,66301.97
2023-04-21T00:30:27.338Z,66404.94
2023-04-21T00:35:32.908Z,66310.03
2023-04-21T00:40:38.288Z,66348.81
2023-04-21T00:45:42.428Z,66376.03
2023-04-21T00:50:47.903Z,66423.81
2023-04-21T00:55:52.257Z,66433.03
2023-04-21T01:00:56.833Z,66462.56
2023-04-21T01:06:02.516Z,66459.88
2023-04-21T01:11:12.245Z,66436.72
2023-04-21T01:16:18.789Z,66438.94
2023-04-21T01:21:24.897Z,66393.91
2023-04-21T01:26:30.333Z,66389.00
2023-04-21T01:31:34.541Z,66311.78
2023-04-21T01:36:38.739Z,66295.63
2023-04-21T01:41:44.224Z,66244.59
2023-04-21T01:46:48.641Z,66260.16
2023-04-21T01:51:52.712Z,66262.81
2023-04-21T01:56:58.564Z,66218.31
2023-04-21T02:02:03.222Z,66189.28
2023-04-21T02:07:10.360Z,66076.31
2023-04-21T02:12:15.960Z,66103.09
2023-04-21T02:17:20.067Z,66057.84
2023-04-21T02:22:24.421Z,66050.19
2023-04-21T02:27:31.374Z,66118.63
2023-04-21T02:32:37.019Z,66100.50
2023-04-21T02:37:41.816Z,66059.19
2023-04-21T02:42:55.746Z,66015.72
2023-04-21T02:47:59.909Z,66035.44
2023-04-21T02:53:04.082Z,66095.53
2023-04-21T02:58:10.453Z,66140.69
2023-04-21T03:03:16.683Z,66155.59
2023-04-21T03:08:20.907Z,66184.53
2023-04-21T03:13:26.357Z,66185.63
2023-04-21T03:18:30.488Z,66174.91
2023-04-21T03:23:34.638Z,66087.56
2023-04-21T03:28:40.085Z,65923.22
2023-04-21T03:33:44.126Z,66009.38
2023-04-21T03:38:48.588Z,65808.28
2023-04-21T03:43:55.005Z,65760.19
2023-04-21T03:48:59.883Z,65813.13
2023-04-21T03:54:05.779Z,65912.53
2023-04-21T03:59:11.226Z,66021.25
2023-04-21T04:04:16.612Z,66125.06
2023-04-21T04:09:21.399Z,66189.44
2023-04-21T04:14:27.108Z,66190.50
2023-04-21T04:19:34.068Z,66208.75
2023-04-21T04:24:38.343Z,66217.78
2023-04-21T04:29:46.553Z,66258.69
2023-04-21T04:34:52.988Z,66307.44
2023-04-21T04:39:58.161Z,66293.47
2023-04-21T04:45:03.763Z,66286.41
2023-04-21T04:50:08.729Z,66237.06
2023-04-21T04:55:12.977Z,66132.03
2023-04-21T05:00:18.862Z,66139.25
2023-04-21T05:05:24.883Z,66144.88
2023-04-21T05:10:29.617Z,66142.28
2023-04-21T05:15:35.095Z,66140.50
2023-04-21T05:20:42.507Z,66179.63
2023-04-21T05:25:46.584Z,66201.69
2023-04-21T05:30:52.024Z,66210.88
2023-04-21T05:35:56.017Z,66236.53
2023-04-21T05:40:59.979Z,66240.38
2023-04-21T05:46:10.577Z,66301.97
2023-04-21T05:51:16.609Z,66344.97
2023-04-21T05:56:21.343Z,66471.25
2023-04-21T06:01:26.836Z,66507.69
2023-04-21T06:06:30.878Z,66637.16
2023-04-21T06:11:35.056Z,66529.16
2023-04-21T06:16:40.560Z,66485.66
2023-04-21T06:21:44.854Z,66531.69
2023-04-21T06:26:48.963Z,66601.59
2023-04-21T06:31:54.354Z,66557.47
2023-04-21T06:36:58.732Z,66609.28
2023-04-21T06:42:02.840Z,66662.97
2023-04-21T06:47:08.413Z,66653.91
2023-04-21T06:52:12.562Z,66660.81
2023-04-21T06:57:17.397Z,66763.75
2023-04-21T07:02:23.081Z,66839.44
2023-04-21T07:07:26.986Z,66690.94
2023-04-21T07:12:30.979Z,66827.13
2023-04-21T07:17:36.542Z,66656.03
2023-04-21T07:22:40.660Z,66718.38
2023-04-21T07:27:44.779Z,66783.44
2023-04-21T07:32:50.281Z,66657.03
2023-04-21T07:37:54.474Z,66768.44
2023-04-21T07:42:58.870Z,66816.38
2023-04-21T07:48:06.273Z,66793.28
2023-04-21T07:53:10.685Z,66775.44
2023-04-21T07:58:14.799Z,66891.75
2023-04-21T08:03:22.852Z,66855.66
2023-04-21T08:08:30.203Z,66934.88
2023-04-21T08:13:36.282Z,66866.91
2023-04-21T08:18:41.766Z,66943.34
2023-04-21T08:23:46.027Z,66865.97
2023-04-21T08:28:50.153Z,66902.06
2023-04-21T08:34:01.998Z,66869.75
2023-04-21T08:39:07.299Z,66896.22
2023-04-21T08:44:12.206Z,66848.75
2023-04-21T08:49:21.095Z,66907.47
2023-04-21T08:54:25.978Z,66939.81
2023-04-21T08:59:30.842Z,66892.84
2023-04-21T09:04:36.690Z,66874.03
2023-04-21T09:09:56.176Z,66939.28
2023-04-21T09:15:01.153Z,66955.97
2023-04-21T09:20:18.713Z,66923.06
2023-04-21T09:25:23.828Z,66924.09
2023-04-21T09:30:28.548Z,66983.94
2023-04-21T09:35:37.520Z,66992.16
2023-04-21T09:40:41.959Z,66925.69
2023-04-21T09:45:47.072Z,66932.72
2023-04-21T09:56:03.826Z,66934.28
2023-04-21T10:01:10.456Z,66956.97
2023-04-21T10:06:16.310Z,66921.94
2023-04-21T10:11:21.383Z,66970.91
2023-04-21T10:16:26.724Z,66892.22
2023-04-21T10:21:37.972Z,66872.97
2023-04-21T10:26:41.869Z,66952.66
2023-04-21T10:31:53.782Z,67075.69
2023-04-21T10:37:19.799Z,66974.34
2023-04-21T10:42:34.859Z,67046.94
2023-04-21T10:47:45.465Z,67102.56
2023-04-21T10:52:56.824Z,67030.81
2023-04-21T10:58:03.989Z,67030.34
2023-04-21T11:03:09.465Z,67150.13
2023-04-21T11:08:15.150Z,67137.66
2023-04-21T11:13:21.876Z,66988.78
2023-04-21T11:18:43.385Z,66995.84
2023-04-21T11:23:53.641Z,67044.41
2023-04-21T11:28:57.729Z,67051.41
2023-04-21T11:34:02.470Z,67341.78
2023-04-21T11:39:10.128Z,67432.13
2023-04-21T11:44:15.529Z,67332.06
2023-04-21T11:49:19.860Z,67662.06
2023-04-21T11:54:25.606Z,67600.81
2023-04-21T11:59:29.738Z,67502.91
2023-04-21T12:04:34.613Z,67496.41
2023-04-21T12:09:39.908Z,67448.28
2023-04-21T12:14:46.405Z,67511.53
2023-04-21T12:19:50.744Z,67620.94
2023-04-21T12:24:56.320Z,67475.88
2023-04-21T12:30:00.541Z,67571.09
2023-04-21T12:35:05.362Z,67604.66
2023-04-21T12:40:11.791Z,67591.09
2023-04-21T12:45:15.899Z,67710.19
2023-04-21T12:50:19.893Z,67511.09
2023-04-21T12:55:25.557Z,67634.47
2023-04-21T13:00:29.674Z,67651.22
2023-04-21T13:05:33.634Z,67708.63
2023-04-21T13:10:38.927Z,67511.09
2023-04-21T13:15:43.065Z,67573.25
2023-04-21T13:20:47.094Z,67572.66
2023-04-21T13:25:52.958Z,67474.78
2023-04-21T13:30:57.469Z,67422.41
2023-04-21T13:36:01.461Z,67650.13
2023-04-21T13:41:07.086Z,67710.25
2023-04-21T13:46:10.994Z,67485.06
2023-04-21T13:51:15.037Z,67399.59
2023-04-21T13:56:20.598Z,67544.03
2023-04-21T14:01:24.612Z,67605.69
2023-04-21T14:06:28.753Z,67607.97
2023-04-21T14:11:34.191Z,67731.94
2023-04-21T14:16:38.924Z,67871.75
2023-04-21T14:21:43.187Z,67728.59
2023-04-21T14:26:48.806Z,67675.59
2023-04-21T14:31:53.976Z,67647.91
2023-04-21T14:36:57.876Z,67729.16
2023-04-21T14:42:03.236Z,67764.97
2023-04-21T14:47:10.458Z,67673.44
2023-04-21T14:52:14.996Z,67583.50
2023-04-21T14:57:21.850Z,67561.88
2023-04-21T15:02:26.612Z,67393.72
2023-04-21T15:07:31.119Z,67507.75
2023-04-21T15:12:36.864Z,67517.59
2023-04-21T15:17:41.094Z,67304.97
2023-04-21T15:22:45.214Z,67341.31
2023-04-21T15:27:50.518Z,67421.28
2023-04-21T15:32:54.258Z,67460.66
2023-04-21T15:37:58.309Z,67482.34
2023-04-21T15:43:03.730Z,67466.72
2023-04-21T15:48:08.348Z,67474.25
2023-04-21T15:53:12.316Z,67439.53
2023-04-21T15:58:17.970Z,67510.97
2023-04-21T16:03:22.615Z,67474.78
2023-04-21T16:08:26.745Z,67477.50
2023-04-21T16:13:32.204Z,67399.56
2023-04-21T16:18:36.752Z,67447.22
2023-04-21T16:23:41.097Z,67376.84
2023-04-21T16:28:46.740Z,67151.69
2023-04-21T16:33:52.738Z,67094.94
2023-04-21T16:38:57.189Z,67073.38
2023-04-21T16:44:02.969Z,66992.94
2023-04-21T16:49:07.231Z,66904.16
2023-04-21T16:54:11.582Z,66878.84
2023-04-21T16:59:19.406Z,66899.28
2023-04-21T17:04:23.665Z,66877.22
2023-04-21T17:09:29.439Z,66882.06
2023-04-21T17:14:35.262Z,66813.19
2023-04-21T17:20:38.058Z,66793.13
2023-04-21T17:25:42.717Z,66766.19
2023-04-21T17:31:03.383Z,66778.50
2023-04-21T17:36:19.851Z,66714.53
2023-04-21T17:41:24.208Z,66705.47
2023-04-21T17:46:30.616Z,66659.19
2023-04-21T17:51:37.313Z,66658.66
2023-04-21T17:56:41.807Z,66648.00
2023-04-21T18:01:47.523Z,66636.06
2023-04-21T18:06:52.389Z,66634.00
2023-04-21T18:11:57.094Z,66623.72
2023-04-21T18:17:03.288Z,66596.22
2023-04-21T18:22:07.481Z,66578.03
2023-04-21T18:27:11.545Z,66558.03
2023-04-21T18:32:18.953Z,66556.41
2023-04-21T18:37:23.142Z,66555.34
2023-04-21T18:42:28.835Z,66548.34
2023-04-21T18:47:35.768Z,66526.41
2023-04-21T18:52:40.043Z,66545.75
2023-04-21T18:57:44.348Z,66522.03
2023-04-21T19:02:51.392Z,66537.16
2023-04-21T19:07:55.638Z,66508.81
2023-04-21T19:12:59.948Z,66520.50
2023-04-21T19:18:05.965Z,66491.31
2023-04-21T19:23:10.266Z,66515.66
2023-04-21T19:28:14.307Z,66486.56
2023-04-21T19:33:20.362Z,66481.28
2023-04-21T19:38:24.645Z,66524.78
2023-04-21T19:43:28.786Z,66467.31
2023-04-21T19:48:34.350Z,66509.75
2023-04-21T19:53:39.060Z,66468.38
2023-04-21T19:58:43.590Z,66436.25
2023-04-21T20:03:49.196Z,66394.19
2023-04-21T20:08:53.755Z,66337.03
2023-04-21T20:13:58.205Z,66351.81
2023-04-21T20:19:04.564Z,66403.31
2023-04-21T20:24:10.475Z,66460.78
2023-04-21T20:29:14.603Z,66418.91
2023-04-21T20:34:20.073Z,66387.28
2023-04-21T20:39:25.244Z,66372.16
2023-04-21T20:44:31.534Z,66302.97
2023-04-21T20:49:37.525Z,66149.09
2023-04-21T20:54:42.258Z,66293.94
2023-04-21T20:59:46.630Z,66309.94
2023-04-21T21:04:52.324Z,66124.53
2023-04-21T21:09:57.285Z,66205.88
2023-04-21T21:15:01.697Z,66245.69
2023-04-21T21:20:08.946Z,66028.13
2023-04-21T21:25:14.068Z,66047.13
2023-04-21T21:30:18.294Z,66108.44
2023-04-21T21:35:27.499Z,66092.94
2023-04-21T21:40:42.578Z,66156.22
2023-04-21T21:45:50.177Z,66205.44
2023-04-21T21:50:56.182Z,66055.97
2023-04-21T21:56:01.229Z,66048.38
2023-04-21T22:01:05.736Z,65982.09
2023-04-21T22:06:13.693Z,65990.56
2023-04-21T22:11:20.389Z,66105.69
2023-04-21T22:16:24.719Z,66215.72
2023-04-21T22:21:31.970Z,66172.56
2023-04-21T22:26:36.455Z,65986.81
2023-04-21T22:31:40.774Z,65963.72
2023-04-21T22:36:46.421Z,65943.13
2023-04-21T22:41:53.257Z,65999.13
2023-04-21T22:46:57.451Z,65926.53
2023-04-21T22:52:02.902Z,65856.84
2023-04-21T22:57:07.495Z,65936.16
2023-04-21T23:02:12.122Z,65998.16
2023-04-21T23:07:17.700Z,66030.78
2023-04-21T23:12:21.804Z,66018.91
2023-04-21T23:17:26.146Z,66036.59
2023-04-21T23:22:31.872Z,66026.88
2023-04-21T23:27:36.179Z,66011.59
2023-04-21T23:32:41.358Z,65853.09
2023-04-21T23:37:47.258Z,65904.16
2023-04-21T23:42:51.409Z,65996.97
2023-04-21T23:47:55.446Z,65982.28
2023-04-21T23:53:01.170Z,65959.16
2023-04-21T23:58:05.398Z,66017.31
